createdAt,value
2023-04-16T00:00:57.624Z,53.79
2023-04-16T00:03:33.708Z,53.72
2023-04-16T00:06:01.900Z,53.88
2023-04-16T00:08:30.275Z,53.61
2023-04-16T00:10:58.329Z,53.85
2023-04-16T00:13:27.628Z,53.80
2023-04-16T00:15:55.824Z,53.70
2023-04-16T00:18:23.996Z,53.63
2023-04-16T00:20:52.374Z,53.89
2023-04-16T00:23:21.250Z,53.91
2023-04-16T00:25:49.345Z,53.91
2023-04-16T00:28:17.406Z,53.71
2023-04-16T00:30:46.213Z,53.86
2023-04-16T00:33:14.368Z,53.86
2023-04-16T00:35:42.178Z,53.91
2023-04-16T00:38:10.080Z,53.76
2023-04-16T00:40:38.491Z,53.87
2023-04-16T00:43:06.654Z,54.02
2023-04-16T00:45:35.135Z,53.98
2023-04-16T00:48:04.215Z,53.90
2023-04-16T00:50:33.852Z,53.86
2023-04-16T00:53:02.531Z,53.99
2023-04-16T00:55:31.570Z,53.73
2023-04-16T00:57:59.444Z,53.74
2023-04-16T01:00:27.697Z,53.86
2023-04-16T01:02:56.221Z,53.87
2023-04-16T01:05:25.135Z,53.98
2023-04-16T01:07:54.131Z,53.82
2023-04-16T01:10:22.075Z,53.86
2023-04-16T01:12:50.375Z,53.93
2023-04-16T01:15:18.553Z,53.97
2023-04-16T01:17:47.070Z,53.90
2023-04-16T01:20:15.108Z,53.97
2023-04-16T01:22:42.990Z,54.07
2023-04-16T01:25:14.866Z,54.03
2023-04-16T01:27:42.907Z,54.22
2023-04-16T01:30:11.698Z,53.85
2023-04-16T01:32:48.698Z,53.77
2023-04-16T01:35:18.275Z,53.84
2023-04-16T01:37:46.252Z,53.98
2023-04-16T01:40:14.241Z,53.83
2023-04-16T01:42:42.290Z,53.96
2023-04-16T01:45:11.217Z,53.82
2023-04-16T01:47:39.559Z,54.00
2023-04-16T01:50:08.143Z,54.02
2023-04-16T01:52:37.133Z,53.96
2023-04-16T01:55:06.029Z,53.86
2023-04-16T01:57:33.934Z,53.99
2023-04-16T02:00:03.279Z,54.07
2023-04-16T02:02:33.102Z,53.83
2023-04-16T02:05:02.081Z,53.84
2023-04-16T02:07:31.911Z,53.99
2023-04-16T02:09:59.912Z,54.21
2023-04-16T02:12:30.007Z,53.96
2023-04-16T02:14:58.480Z,54.09
2023-04-16T02:17:28.318Z,54.15
2023-04-16T02:20:09.555Z,53.97
2023-04-16T02:22:40.344Z,53.86
2023-04-16T02:25:08.467Z,54.11
2023-04-16T02:27:36.856Z,53.92
2023-04-16T02:30:15.790Z,54.00
2023-04-16T02:32:43.919Z,54.03
2023-04-16T02:35:12.028Z,54.09
2023-04-16T02:37:40.922Z,54.02
2023-04-16T02:40:09.851Z,54.07
2023-04-16T02:42:37.887Z,54.29
2023-04-16T02:45:07.590Z,54.16
2023-04-16T02:47:35.826Z,54.16
2023-04-16T02:50:04.282Z,54.11
2023-04-16T02:52:33.137Z,54.11
2023-04-16T02:55:01.628Z,54.13
2023-04-16T02:57:29.588Z,54.00
2023-04-16T02:59:57.771Z,54.12
2023-04-16T03:02:26.604Z,54.11
2023-04-16T03:04:54.621Z,54.09
2023-04-16T03:07:22.691Z,53.97
2023-04-16T03:09:50.770Z,54.28
2023-04-16T03:12:18.840Z,54.21
2023-04-16T03:14:46.912Z,54.18
2023-04-16T03:17:14.878Z,54.32
2023-04-16T03:19:42.844Z,54.27
2023-04-16T03:22:10.990Z,54.23
2023-04-16T03:24:39.088Z,54.19
2023-04-16T03:27:06.976Z,54.27
2023-04-16T03:29:38.946Z,54.25
2023-04-16T03:32:07.809Z,54.44
2023-04-16T03:34:37.009Z,54.56
2023-04-16T03:37:06.342Z,54.45
2023-04-16T03:39:34.807Z,54.45
2023-04-16T03:42:03.710Z,54.32
2023-04-16T03:44:31.853Z,54.42
2023-04-16T03:47:00.441Z,54.25
2023-04-16T03:49:28.715Z,54.37
2023-04-16T03:51:57.710Z,54.48
2023-04-16T03:54:26.919Z,54.67
2023-04-16T03:57:03.337Z,54.53
2023-04-16T03:59:31.344Z,54.29
2023-04-16T04:01:59.377Z,54.18
2023-04-16T04:04:27.479Z,54.37
2023-04-16T04:06:55.765Z,54.44
2023-04-16T04:09:24.280Z,54.43
2023-04-16T04:11:53.453Z,54.45
2023-04-16T04:14:21.284Z,54.40
2023-04-16T04:16:49.278Z,54.48
2023-04-16T04:19:17.228Z,54.52
2023-04-16T04:21:45.117Z,54.39
2023-04-16T04:24:13.084Z,54.36
2023-04-16T04:26:41.169Z,54.44
2023-04-16T04:29:09.464Z,54.34
2023-04-16T04:31:37.720Z,54.40
2023-04-16T04:34:05.678Z,54.41
2023-04-16T04:36:33.901Z,54.57
2023-04-16T04:39:02.129Z,54.58
2023-04-16T04:41:30.409Z,54.44
2023-04-16T04:43:58.399Z,54.60
2023-04-16T04:46:26.809Z,54.62
2023-04-16T04:48:55.026Z,54.61
2023-04-16T04:51:23.101Z,54.36
2023-04-16T04:53:51.350Z,54.56
2023-04-16T04:56:19.640Z,54.73
2023-04-16T04:58:47.617Z,54.33
2023-04-16T05:01:15.762Z,54.30
2023-04-16T05:03:44.338Z,54.46
2023-04-16T05:06:12.760Z,54.49
2023-04-16T05:08:40.928Z,54.57
2023-04-16T05:11:09.004Z,54.47
2023-04-16T05:13:37.179Z,54.63
2023-04-16T05:16:05.793Z,54.52
2023-04-16T05:18:33.933Z,54.29
2023-04-16T05:21:02.095Z,54.26
2023-04-16T05:23:30.104Z,54.48
2023-04-16T05:25:58.148Z,54.40
2023-04-16T05:28:26.121Z,54.31
2023-04-16T05:30:54.114Z,54.46
2023-04-16T05:33:22.059Z,54.64
2023-04-16T05:35:50.129Z,54.35
2023-04-16T05:38:18.109Z,54.41
2023-04-16T05:40:46.267Z,54.43
2023-04-16T05:43:14.448Z,54.41
2023-04-16T05:45:42.595Z,54.49
2023-04-16T05:48:10.864Z,54.46
2023-04-16T05:50:39.373Z,54.46
2023-04-16T05:53:09.422Z,54.57
2023-04-16T05:55:37.458Z,54.46
2023-04-16T05:58:05.948Z,54.48
2023-04-16T06:00:34.212Z,54.41
2023-04-16T06:03:03.089Z,54.34
2023-04-16T06:05:31.436Z,54.44
2023-04-16T06:07:59.579Z,54.31
2023-04-16T06:10:28.243Z,54.54
2023-04-16T06:12:56.420Z,54.44
2023-04-16T06:15:24.489Z,54.52
2023-04-16T06:17:52.416Z,54.56
2023-04-16T06:20:20.838Z,54.54
2023-04-16T06:22:48.887Z,54.64
2023-04-16T06:25:18.210Z,54.61
2023-04-16T06:27:46.383Z,54.66
2023-04-16T06:30:16.260Z,54.51
2023-04-16T06:32:44.582Z,54.46
2023-04-16T06:35:12.814Z,54.58
2023-04-16T06:37:41.329Z,54.48
2023-04-16T06:40:09.750Z,54.63
2023-04-16T06:42:37.749Z,54.52
2023-04-16T06:45:06.774Z,54.46
2023-04-16T06:47:34.889Z,54.46
2023-04-16T06:50:02.963Z,54.62
2023-04-16T06:52:31.187Z,54.61
2023-04-16T06:54:59.364Z,54.54
2023-04-16T06:57:27.749Z,54.41
2023-04-16T06:59:55.917Z,54.56
2023-04-16T07:02:24.574Z,54.60
2023-04-16T07:04:52.661Z,54.73
2023-04-16T07:07:20.761Z,54.70
2023-04-16T07:09:48.822Z,54.69
2023-04-16T07:12:16.792Z,54.58
2023-04-16T07:14:44.857Z,54.54
2023-04-16T07:17:12.931Z,54.51
2023-04-16T07:19:41.078Z,54.61
2023-04-16T07:22:09.159Z,54.53
2023-04-16T07:24:55.710Z,54.47
2023-04-16T07:27:23.975Z,54.42
2023-04-16T07:29:52.135Z,54.52
2023-04-16T07:32:22.769Z,54.68
2023-04-16T07:34:51.243Z,54.55
2023-04-16T07:37:19.222Z,54.79
2023-04-16T07:39:47.496Z,54.73
2023-04-16T07:42:15.871Z,54.59
2023-04-16T07:44:44.557Z,54.68
2023-04-16T07:47:12.732Z,54.63
2023-04-16T07:49:40.799Z,54.61
2023-04-16T07:52:09.103Z,54.59
2023-04-16T07:54:37.194Z,54.54
2023-04-16T07:57:05.169Z,54.43
2023-04-16T07:59:33.189Z,54.66
2023-04-16T08:02:01.787Z,54.34
2023-04-16T08:04:30.242Z,54.38
2023-04-16T08:06:58.415Z,54.47
2023-04-16T08:09:28.749Z,54.55
2023-04-16T08:11:57.128Z,54.28
2023-04-16T08:14:25.098Z,54.31
2023-04-16T08:16:53.177Z,54.23
2023-04-16T08:19:21.345Z,54.46
2023-04-16T08:21:49.315Z,54.21
2023-04-16T08:24:17.590Z,54.15
2023-04-16T08:26:45.665Z,54.32
2023-04-16T08:29:13.842Z,54.17
2023-04-16T08:31:42.179Z,54.21
2023-04-16T08:34:11.834Z,54.01
2023-04-16T08:36:41.530Z,54.20
2023-04-16T08:39:10.023Z,54.35
2023-04-16T08:41:42.291Z,54.40
2023-04-16T08:44:21.617Z,54.13
2023-04-16T08:46:54.788Z,54.07
2023-04-16T08:49:24.413Z,53.98
2023-04-16T08:51:56.593Z,54.04
2023-04-16T08:54:46.556Z,54.00
2023-04-16T08:57:30.616Z,53.87
2023-04-16T08:59:59.718Z,53.96
2023-04-16T09:02:28.565Z,54.52
2023-04-16T09:05:00.186Z,55.75
2023-04-16T09:07:29.875Z,56.23
2023-04-16T09:09:59.941Z,56.53
2023-04-16T09:12:28.167Z,56.62
2023-04-16T09:14:57.450Z,56.42
2023-04-16T09:17:25.444Z,56.61
2023-04-16T09:19:54.645Z,56.63
2023-04-16T09:22:22.898Z,56.26
2023-04-16T09:24:50.797Z,56.33
2023-04-16T09:27:19.255Z,56.22
2023-04-16T09:29:47.085Z,56.04
2023-04-16T09:32:15.132Z,55.84
2023-04-16T09:35:00.829Z,55.66
2023-04-16T09:37:30.801Z,55.56
2023-04-16T09:40:04.119Z,55.45
2023-04-16T09:42:34.493Z,55.25
2023-04-16T09:45:05.119Z,55.26
2023-04-16T09:47:44.472Z,55.13
2023-04-16T09:50:18.936Z,55.20
2023-04-16T09:52:51.772Z,55.09
2023-04-16T09:55:27.112Z,55.06
2023-04-16T09:58:02.286Z,55.06
2023-04-16T10:00:31.720Z,54.96
2023-04-16T10:03:08.883Z,54.83
2023-04-16T10:54:03.518Z,56.49
2023-04-16T10:56:33.525Z,56.13
2023-04-16T10:59:04.479Z,56.62
2023-04-16T11:01:35.099Z,56.78
2023-04-16T11:04:21.627Z,56.79
2023-04-16T11:07:14.753Z,56.76
2023-04-16T11:10:04.585Z,56.85
2023-04-16T11:12:35.691Z,57.05
2023-04-16T11:15:06.766Z,56.55
2023-04-16T11:17:40.201Z,56.38
2023-04-16T11:20:20.955Z,56.28
2023-04-16T11:22:54.668Z,56.37
2023-04-16T11:25:26.623Z,55.82
2023-04-16T11:27:54.916Z,56.06
2023-04-16T11:30:34.739Z,56.06
2023-04-16T11:33:09.387Z,55.38
2023-04-16T11:35:39.651Z,55.42
2023-04-16T11:38:07.840Z,56.39
2023-04-16T11:40:36.542Z,56.18
2023-04-16T11:43:22.849Z,55.33
2023-04-16T11:46:13.245Z,55.76
2023-04-16T11:48:49.138Z,55.70
2023-04-16T11:51:18.462Z,55.45
2023-04-16T11:53:56.350Z,55.75
2023-04-16T11:56:29.419Z,54.74
2023-04-16T11:59:11.531Z,54.99
2023-04-16T12:01:42.829Z,55.74
2023-04-16T12:04:14.547Z,55.75
2023-04-16T12:07:11.056Z,55.20
2023-04-16T12:09:41.502Z,55.85
2023-04-16T12:12:35.864Z,55.84
2023-04-16T12:15:04.784Z,55.26
2023-04-16T12:17:34.327Z,55.45
2023-04-16T12:20:07.957Z,55.89
2023-04-16T12:22:38.088Z,55.72
2023-04-16T12:25:14.917Z,55.98
2023-04-16T12:27:49.095Z,56.48
2023-04-16T12:30:22.587Z,54.84
2023-04-16T12:32:52.673Z,54.56
2023-04-16T12:35:31.852Z,54.48
2023-04-16T12:38:01.022Z,54.90
2023-04-16T12:40:29.205Z,54.16
2023-04-16T12:42:57.605Z,53.89
2023-04-16T12:45:26.095Z,53.57
2023-04-16T12:47:54.360Z,53.43
2023-04-16T12:50:22.612Z,53.14
2023-04-16T12:52:50.999Z,52.12
2023-04-16T12:55:19.155Z,52.65
2023-04-16T12:57:49.102Z,52.77
2023-04-16T13:00:17.390Z,52.83
2023-04-16T13:02:45.967Z,52.65
2023-04-16T13:05:16.783Z,52.93
2023-04-16T13:07:44.827Z,52.81
2023-04-16T13:10:13.764Z,53.06
2023-04-16T13:12:41.866Z,52.78
2023-04-16T13:15:10.740Z,52.51
2023-04-16T13:17:38.598Z,52.17
2023-04-16T13:20:07.891Z,52.12
2023-04-16T13:22:36.049Z,52.11
2023-04-16T13:25:04.608Z,52.65
2023-04-16T13:27:32.763Z,52.08
2023-04-16T13:30:00.998Z,50.60
2023-04-16T13:32:29.610Z,50.78
2023-04-16T13:34:57.769Z,51.30
2023-04-16T13:37:25.918Z,51.72
2023-04-16T13:39:53.840Z,52.17
2023-04-16T13:42:22.276Z,51.87
2023-04-16T13:44:53.222Z,50.86
2023-04-16T13:47:21.387Z,50.43
2023-04-16T13:49:49.430Z,50.83
2023-04-16T13:52:17.387Z,50.47
2023-04-16T13:54:45.377Z,50.36
2023-04-16T13:57:20.329Z,51.00
2023-04-16T13:59:48.346Z,51.73
2023-04-16T14:02:16.573Z,51.73
2023-04-16T14:04:44.750Z,50.80
2023-04-16T14:07:13.046Z,50.30
2023-04-16T14:09:41.185Z,50.39
2023-04-16T14:12:09.251Z,50.13
2023-04-16T14:14:37.316Z,51.28
2023-04-16T14:17:05.430Z,51.08
2023-04-16T14:19:33.462Z,50.92
2023-04-16T14:22:01.365Z,50.41
2023-04-16T14:24:29.385Z,49.78
2023-04-16T14:26:57.361Z,49.94
2023-04-16T14:29:25.327Z,49.45
2023-04-16T14:31:53.433Z,49.73
2023-04-16T14:34:21.294Z,51.56
2023-04-16T14:36:50.444Z,52.26
2023-04-16T14:39:18.634Z,50.98
2023-04-16T14:41:46.603Z,49.91
2023-04-16T14:44:14.923Z,50.46
2023-04-16T14:46:43.985Z,51.04
2023-04-16T14:49:12.508Z,51.55
2023-04-16T14:51:41.380Z,51.90
2023-04-16T14:54:09.932Z,52.38
2023-04-16T14:56:38.082Z,53.00
2023-04-16T14:59:06.868Z,52.06
2023-04-16T15:01:36.278Z,52.27
2023-04-16T15:04:04.635Z,52.92
2023-04-16T15:06:33.665Z,53.25
2023-04-16T15:09:01.736Z,53.72
2023-04-16T15:11:30.324Z,53.88
2023-04-16T15:13:58.288Z,55.03
2023-04-16T15:16:26.720Z,55.60
2023-04-16T15:18:54.739Z,56.08
2023-04-16T15:21:22.682Z,55.69
2023-04-16T15:23:50.685Z,55.85
2023-04-16T15:26:18.648Z,55.77
2023-04-16T15:28:46.571Z,56.04
2023-04-16T15:31:14.664Z,55.92
2023-04-16T15:33:42.649Z,54.81
2023-04-16T15:36:11.466Z,55.43
2023-04-16T15:38:39.510Z,55.34
2023-04-16T15:41:09.710Z,55.81
2023-04-16T15:43:37.846Z,56.05
2023-04-16T15:46:06.832Z,56.69
2023-04-16T15:48:34.879Z,57.65
2023-04-16T15:51:02.912Z,57.99
2023-04-16T15:53:31.359Z,57.43
2023-04-16T15:56:01.032Z,56.97
2023-04-16T15:58:28.947Z,57.21
2023-04-16T16:00:56.904Z,57.33
2023-04-16T16:03:25.013Z,56.82
2023-04-16T16:05:53.328Z,56.69
2023-04-16T16:08:21.605Z,56.45
2023-04-16T16:10:49.507Z,56.95
2023-04-16T16:13:18.553Z,57.36
2023-04-16T16:15:46.607Z,57.10
2023-04-16T16:18:14.502Z,56.76
2023-04-16T16:20:42.435Z,56.35
2023-04-16T16:23:10.635Z,55.89
2023-04-16T16:25:38.605Z,55.27
2023-04-16T16:28:06.797Z,55.08
2023-04-16T16:30:35.050Z,55.15
2023-04-16T16:33:03.048Z,55.37
2023-04-16T16:35:31.606Z,55.53
2023-04-16T16:37:59.675Z,54.91
2023-04-16T16:40:28.462Z,55.48
2023-04-16T16:42:57.083Z,55.19
2023-04-16T16:45:27.135Z,54.62
2023-04-16T16:47:55.704Z,54.06
2023-04-16T16:50:23.617Z,54.23
2023-04-16T16:52:51.900Z,53.55
2023-04-16T16:55:21.014Z,53.51
2023-04-16T16:57:49.463Z,53.25
2023-04-16T17:00:20.286Z,53.93
2023-04-16T17:02:51.359Z,54.15
2023-04-16T17:05:20.028Z,54.12
2023-04-16T17:07:48.725Z,54.05
2023-04-16T17:10:21.159Z,53.97
2023-04-16T17:12:50.693Z,54.66
2023-04-16T17:15:21.428Z,54.70
2023-04-16T17:17:49.934Z,54.64
2023-04-16T17:20:18.188Z,56.37
2023-04-16T17:22:46.034Z,57.41
2023-04-16T17:25:14.126Z,57.97
2023-04-16T17:27:42.123Z,58.42
2023-04-16T17:30:10.554Z,58.85
2023-04-16T17:32:38.671Z,59.07
2023-04-16T17:35:09.008Z,58.97
2023-04-16T17:37:36.976Z,58.85
2023-04-16T17:40:07.616Z,58.85
2023-04-16T17:42:36.360Z,58.75
2023-04-16T17:45:04.859Z,59.06
2023-04-16T17:47:36.011Z,59.12
2023-04-16T17:50:04.888Z,59.80
2023-04-16T17:52:33.234Z,59.77
2023-04-16T17:55:01.796Z,59.90
2023-04-16T17:57:30.121Z,60.29
2023-04-16T17:59:58.388Z,60.58
2023-04-16T18:02:26.665Z,60.56
2023-04-16T18:04:55.086Z,60.30
2023-04-16T18:07:23.335Z,60.35
2023-04-16T18:09:51.419Z,60.14
2023-04-16T18:12:19.409Z,60.26
2023-04-16T18:14:47.432Z,60.20
2023-04-16T18:17:15.717Z,60.13
2023-04-16T18:19:44.523Z,60.12
2023-04-16T18:22:13.361Z,60.39
2023-04-16T18:24:41.476Z,60.17
2023-04-16T18:27:09.398Z,60.25
2023-04-16T18:29:39.026Z,60.20
2023-04-16T18:32:11.770Z,60.32
2023-04-16T18:34:40.279Z,60.21
2023-04-16T18:37:09.194Z,60.42
2023-04-16T18:39:37.436Z,61.13
2023-04-16T18:42:05.721Z,61.36
2023-04-16T18:44:34.010Z,61.07
2023-04-16T18:47:02.183Z,61.08
2023-04-16T18:49:30.548Z,61.16
2023-04-16T18:51:58.529Z,61.33
2023-04-16T18:54:27.717Z,61.49
2023-04-16T18:56:57.407Z,61.93
2023-04-16T18:59:29.494Z,62.02
2023-04-16T19:01:57.470Z,62.19
2023-04-16T19:04:25.992Z,62.64
2023-04-16T19:06:54.121Z,62.82
2023-04-16T19:09:22.198Z,62.93
2023-04-16T19:11:50.751Z,63.22
2023-04-16T19:14:18.864Z,63.34
2023-04-16T19:16:47.559Z,63.63
2023-04-16T19:19:17.762Z,63.88
2023-04-16T19:21:45.933Z,64.14
2023-04-16T19:24:13.912Z,64.14
2023-04-16T19:26:41.895Z,64.23
2023-04-16T19:29:09.954Z,64.37
2023-04-16T19:31:38.133Z,64.32
2023-04-16T19:34:06.364Z,64.56
2023-04-16T19:36:34.584Z,64.91
2023-04-16T19:39:02.457Z,65.10
2023-04-16T19:41:30.395Z,65.38
2023-04-16T19:43:58.341Z,65.63
2023-04-16T19:46:26.640Z,65.61
2023-04-16T19:48:54.605Z,65.75
2023-04-16T19:51:22.908Z,66.03
2023-04-16T19:53:51.857Z,66.04
2023-04-16T19:56:19.900Z,66.21
2023-04-16T19:58:47.965Z,66.30
2023-04-16T20:01:19.297Z,66.52
2023-04-16T20:03:47.357Z,66.76
2023-04-16T20:06:17.638Z,66.72
2023-04-16T20:08:45.880Z,66.82
2023-04-16T20:11:14.216Z,67.02
2023-04-16T20:13:43.315Z,67.16
2023-04-16T20:16:13.765Z,67.43
2023-04-16T20:18:42.764Z,68.19
2023-04-16T20:21:11.206Z,68.70
2023-04-16T20:23:39.276Z,68.95
2023-04-16T20:26:07.457Z,69.09
2023-04-16T20:28:36.353Z,68.89
2023-04-16T20:31:04.327Z,69.08
2023-04-16T20:33:32.220Z,69.47
2023-04-16T20:36:00.258Z,69.51
2023-04-16T20:38:32.241Z,69.67
2023-04-16T20:41:10.121Z,69.82
2023-04-16T20:43:41.125Z,70.01
2023-04-16T20:46:10.877Z,70.27
2023-04-16T20:48:39.242Z,70.49
2023-04-16T20:51:09.787Z,70.22
2023-04-16T20:53:38.453Z,69.99
2023-04-16T20:56:08.417Z,70.25
2023-04-16T20:58:36.327Z,70.50
2023-04-16T21:01:06.098Z,70.30
2023-04-16T21:03:34.523Z,70.17
2023-04-16T21:06:03.727Z,70.69
2023-04-16T21:08:31.796Z,70.47
2023-04-16T21:10:59.645Z,70.75
2023-04-16T21:13:27.635Z,71.00
2023-04-16T21:15:55.854Z,70.68
2023-04-16T21:18:24.192Z,70.74
2023-04-16T21:20:52.284Z,70.90
2023-04-16T21:23:20.442Z,70.35
2023-04-16T21:25:48.403Z,70.30
2023-04-16T21:28:16.335Z,70.39
2023-04-16T21:30:44.342Z,70.27
2023-04-16T21:33:13.131Z,70.92
2023-04-16T21:35:41.103Z,70.99
2023-04-16T21:38:09.060Z,70.47
2023-04-16T21:40:36.925Z,70.41
2023-04-16T21:43:05.001Z,70.64
2023-04-16T21:45:33.176Z,70.33
2023-04-16T21:48:01.656Z,70.38
2023-04-16T21:50:30.246Z,70.42
2023-04-16T21:53:00.801Z,70.13
2023-04-16T21:55:28.837Z,70.11
2023-04-16T21:57:56.865Z,70.23
2023-04-16T22:00:25.061Z,70.14
2023-04-16T22:02:55.919Z,70.17
2023-04-16T22:05:24.369Z,69.97
2023-04-16T22:07:53.243Z,70.34
2023-04-16T22:10:21.304Z,70.50
2023-04-16T22:12:55.379Z,70.18
2023-04-16T22:15:23.427Z,70.34
2023-04-16T22:17:51.965Z,69.88
2023-04-16T22:20:22.455Z,70.51
2023-04-16T22:22:52.818Z,70.38
2023-04-16T22:25:20.851Z,70.56
2023-04-16T22:27:50.689Z,70.88
2023-04-16T22:30:18.921Z,70.86
2023-04-16T22:32:47.405Z,70.98
2023-04-16T22:35:15.578Z,70.85
2023-04-16T22:37:43.646Z,70.77
2023-04-16T22:40:18.215Z,70.07
2023-04-16T22:42:46.331Z,69.55
2023-04-16T22:45:14.346Z,69.50
2023-04-16T22:47:43.259Z,69.40
2023-04-16T22:50:11.844Z,69.02
2023-04-16T22:52:40.353Z,69.51
2023-04-16T22:55:09.962Z,69.47
2023-04-16T22:57:38.061Z,69.13
2023-04-16T23:00:15.746Z,69.04
2023-04-16T23:02:44.940Z,69.27
2023-04-16T23:05:13.104Z,68.82
2023-04-16T23:07:41.413Z,68.94
2023-04-16T23:10:09.566Z,68.57
2023-04-16T23:12:37.707Z,68.08
2023-04-16T23:15:06.749Z,67.69
2023-04-16T23:17:35.368Z,68.04
2023-04-16T23:20:07.551Z,68.01
2023-04-16T23:22:36.165Z,68.04
2023-04-16T23:25:04.532Z,68.42
2023-04-16T23:27:32.581Z,68.39
2023-04-16T23:30:00.785Z,68.43
2023-04-16T23:32:28.933Z,68.23
2023-04-16T23:34:57.024Z,68.28
2023-04-16T23:37:25.127Z,68.68
2023-04-16T23:39:53.294Z,68.75
2023-04-16T23:42:21.189Z,68.80
2023-04-16T23:44:49.178Z,68.80
2023-04-16T23:47:17.556Z,68.23
2023-04-16T23:49:45.635Z,68.06
2023-04-16T23:52:15.842Z,68.05
2023-04-16T23:54:43.794Z,67.65
2023-04-16T23:57:12.134Z,67.54
2023-04-16T23:59:40.068Z,67.71
